createdAt,value
2023-05-13T00:00:03.055Z,2.13
2023-05-13T00:02:31.650Z,3.63
2023-05-13T00:04:59.975Z,4.13
2023-05-13T00:07:28.438Z,3.23
2023-05-13T00:09:56.741Z,3.83
2023-05-13T00:12:25.185Z,3.17
2023-05-13T00:14:53.612Z,3.67
2023-05-13T00:17:23.298Z,2.77
2023-05-13T00:19:51.672Z,2.77
2023-05-13T00:22:19.963Z,4.67
2023-05-13T00:24:48.456Z,3.27
2023-05-13T00:27:16.726Z,3.13
2023-05-13T00:29:44.993Z,2.87
2023-05-13T00:32:13.312Z,2.93
2023-05-13T00:34:42.962Z,2.53
2023-05-13T00:37:12.159Z,4.07
2023-05-13T00:39:40.510Z,3.23
2023-05-13T00:42:12.425Z,3.53
2023-05-13T00:44:40.961Z,3.83
2023-05-13T00:47:10.430Z,2.50
2023-05-13T00:49:38.814Z,3.43
2023-05-13T00:52:11.914Z,2.43
2023-05-13T00:54:40.220Z,3.33
2023-05-13T00:57:08.950Z,2.77
2023-05-13T00:59:37.260Z,2.60
2023-05-13T01:02:12.256Z,2.47
2023-05-13T01:04:50.366Z,2.17
2023-05-13T01:07:35.199Z,3.63
2023-05-13T01:10:11.469Z,3.47
2023-05-13T01:12:42.560Z,2.70
2023-05-13T01:15:15.209Z,2.50
2023-05-13T01:17:51.697Z,2.83
2023-05-13T01:20:23.895Z,3.30
2023-05-13T01:22:53.893Z,3.07
2023-05-13T01:25:22.194Z,2.90
2023-05-13T01:27:50.733Z,2.83
2023-05-13T01:30:22.763Z,2.60
2023-05-13T01:32:53.084Z,2.60
2023-05-13T01:35:22.830Z,2.80
2023-05-13T01:37:53.903Z,2.87
2023-05-13T01:40:32.437Z,2.87
2023-05-13T01:43:01.710Z,2.53
2023-05-13T01:45:30.790Z,2.63
2023-05-13T01:47:59.168Z,2.40
2023-05-13T01:50:27.614Z,6.33
2023-05-13T01:52:57.572Z,3.17
2023-05-13T01:55:28.937Z,2.50
2023-05-13T01:57:57.249Z,3.50
2023-05-13T02:00:25.628Z,3.03
2023-05-13T02:02:54.037Z,3.37
2023-05-13T02:05:23.282Z,3.00
2023-05-13T02:07:51.952Z,3.37
2023-05-13T02:10:21.838Z,2.70
2023-05-13T02:12:50.377Z,3.10
2023-05-13T02:15:18.912Z,2.60
2023-05-13T02:17:47.242Z,3.27
2023-05-13T02:20:16.080Z,2.53
2023-05-13T02:22:47.290Z,3.07
2023-05-13T02:25:15.662Z,3.20
2023-05-13T02:27:45.344Z,2.20
2023-05-13T02:30:14.216Z,3.07
2023-05-13T02:32:43.986Z,2.83
2023-05-13T02:35:12.436Z,2.93
2023-05-13T02:37:40.797Z,2.50
2023-05-13T02:40:10.799Z,3.97
2023-05-13T02:42:39.115Z,3.10
2023-05-13T02:45:10.809Z,2.80
2023-05-13T02:47:39.336Z,2.57
2023-05-13T02:50:10.138Z,2.70
2023-05-13T02:52:39.225Z,2.87
2023-05-13T02:55:10.275Z,2.70
2023-05-13T02:57:38.654Z,3.03
2023-05-13T03:00:11.137Z,2.80
2023-05-13T03:02:40.156Z,2.30
2023-05-13T03:05:09.731Z,3.10
2023-05-13T03:07:38.027Z,4.93
2023-05-13T03:10:07.775Z,2.50
2023-05-13T03:12:36.216Z,3.73
2023-05-13T03:15:04.879Z,2.60
2023-05-13T03:17:34.587Z,2.87
2023-05-13T03:20:03.488Z,5.00
2023-05-13T03:22:31.751Z,3.43
2023-05-13T03:25:00.227Z,2.90
2023-05-13T03:27:28.522Z,2.73
2023-05-13T03:29:56.801Z,2.27
2023-05-13T03:32:30.489Z,4.53
2023-05-13T03:35:01.618Z,2.63
2023-05-13T03:37:29.902Z,3.37
2023-05-13T03:39:58.302Z,1.43
2023-05-13T03:42:26.693Z,1.80
2023-05-13T03:44:57.046Z,2.07
2023-05-13T03:47:28.155Z,2.20
2023-05-13T03:49:56.567Z,1.63
2023-05-13T03:52:26.447Z,3.30
2023-05-13T03:54:54.767Z,2.23
2023-05-13T03:57:23.057Z,2.30
2023-05-13T03:59:51.364Z,1.90
2023-05-13T04:02:21.785Z,2.33
2023-05-13T04:04:50.142Z,2.47
2023-05-13T04:07:18.492Z,2.13
2023-05-13T04:09:48.199Z,1.90
2023-05-13T04:12:18.150Z,4.93
2023-05-13T04:14:49.358Z,8.27
2023-05-13T04:17:19.723Z,7.20
2023-05-13T04:19:48.041Z,9.50
2023-05-13T04:22:16.341Z,10.00
2023-05-13T04:24:44.672Z,10.80
2023-05-13T04:27:14.382Z,12.67
2023-05-13T04:29:42.692Z,14.47
2023-05-13T04:32:11.081Z,8.20
2023-05-13T04:34:39.523Z,5.33
2023-05-13T04:37:08.101Z,4.10
2023-05-13T04:39:36.388Z,2.70
2023-05-13T04:42:05.007Z,3.10
2023-05-13T04:44:35.104Z,3.00
2023-05-13T04:47:03.446Z,3.00
2023-05-13T04:49:31.752Z,3.40
2023-05-13T04:52:05.323Z,2.60
2023-05-13T04:54:35.432Z,3.00
2023-05-13T04:57:03.969Z,2.80
2023-05-13T04:59:32.332Z,2.47
2023-05-13T05:02:02.484Z,3.30
2023-05-13T05:04:30.971Z,2.73
2023-05-13T05:07:04.111Z,3.30
2023-05-13T05:09:32.369Z,3.17
2023-05-13T05:12:03.554Z,2.80
2023-05-13T05:14:31.836Z,2.90
2023-05-13T05:17:04.620Z,3.10
2023-05-13T05:19:33.116Z,3.33
2023-05-13T05:22:04.370Z,7.63
2023-05-13T05:24:32.651Z,3.80
2023-05-13T05:27:01.030Z,2.63
2023-05-13T05:29:32.332Z,1.97
2023-05-13T05:32:05.889Z,2.30
2023-05-13T05:34:34.343Z,4.40
2023-05-13T05:37:02.624Z,2.53
2023-05-13T05:39:30.924Z,2.67
2023-05-13T05:42:05.065Z,5.93
2023-05-13T05:44:36.475Z,4.90
2023-05-13T05:47:06.797Z,3.10
2023-05-13T05:49:35.113Z,2.77
2023-05-13T05:52:03.449Z,2.50
2023-05-13T05:54:37.863Z,2.60
2023-05-13T05:57:06.871Z,3.10
2023-05-13T05:59:35.179Z,2.93
2023-05-13T06:02:05.130Z,2.77
2023-05-13T06:04:33.519Z,4.53
2023-05-13T06:07:01.914Z,3.10
2023-05-13T06:09:30.370Z,3.13
2023-05-13T06:11:58.667Z,3.13
2023-05-13T06:14:27.122Z,5.13
2023-05-13T06:16:56.068Z,2.83
2023-05-13T06:19:25.796Z,3.10
2023-05-13T06:21:54.124Z,3.70
2023-05-13T06:24:22.504Z,3.00
2023-05-13T06:26:50.764Z,2.60
2023-05-13T06:29:19.123Z,2.77
2023-05-13T06:31:50.172Z,4.03
2023-05-13T06:34:18.491Z,3.57
2023-05-13T06:36:48.158Z,2.70
2023-05-13T06:39:16.625Z,2.23
2023-05-13T06:41:47.711Z,2.43
2023-05-13T06:44:16.082Z,2.60
2023-05-13T06:46:44.506Z,2.70
2023-05-13T06:49:12.835Z,2.50
2023-05-13T06:51:47.024Z,2.60
2023-05-13T06:54:16.730Z,2.37
2023-05-13T06:56:45.070Z,2.10
2023-05-13T06:59:13.697Z,2.83
2023-05-13T07:01:43.613Z,2.00
2023-05-13T07:04:11.936Z,2.43
2023-05-13T07:06:40.406Z,2.03
2023-05-13T07:09:14.700Z,2.33
2023-05-13T07:11:47.529Z,2.50
2023-05-13T07:14:15.817Z,2.70
2023-05-13T07:16:47.126Z,2.00
2023-05-13T07:19:18.602Z,2.43
2023-05-13T07:21:50.022Z,1.77
2023-05-13T07:24:18.279Z,1.63
2023-05-13T07:26:53.440Z,2.23
2023-05-13T07:29:21.751Z,1.87
2023-05-13T07:31:52.689Z,1.80
2023-05-13T07:34:21.236Z,1.90
2023-05-13T07:36:54.882Z,1.73
2023-05-13T07:39:23.192Z,2.07
2023-05-13T07:41:52.878Z,1.80
2023-05-13T07:44:21.238Z,1.93
2023-05-13T07:46:51.584Z,1.83
2023-05-13T07:49:19.947Z,4.90
2023-05-13T07:51:48.349Z,4.10
2023-05-13T07:54:16.631Z,1.90
2023-05-13T07:56:48.070Z,1.77
2023-05-13T07:59:17.764Z,1.53
2023-05-13T08:01:46.108Z,1.70
2023-05-13T08:04:14.495Z,1.53
2023-05-13T08:06:48.877Z,1.23
2023-05-13T08:11:51.716Z,1.10
2023-05-13T08:14:21.704Z,2.33
2023-05-13T08:16:50.227Z,1.80
2023-05-13T08:19:18.751Z,2.20
2023-05-13T08:21:47.065Z,1.57
2023-05-13T08:24:18.253Z,1.47
2023-05-13T08:26:47.246Z,1.40
2023-05-13T08:29:15.794Z,1.30
2023-05-13T08:31:48.555Z,1.30
2023-05-13T08:34:17.030Z,4.30
2023-05-13T08:36:45.401Z,3.07
2023-05-13T08:39:13.766Z,1.50
2023-05-13T08:41:43.619Z,1.50
2023-05-13T08:44:14.374Z,2.30
2023-05-13T08:46:50.745Z,1.60
2023-05-13T08:49:19.162Z,1.20
2023-05-13T08:51:47.500Z,2.33
2023-05-13T08:54:17.596Z,1.33
2023-05-13T08:56:45.856Z,1.40
2023-05-13T08:59:14.152Z,1.10
2023-05-13T09:01:42.505Z,1.40
2023-05-13T09:04:12.478Z,0.90
2023-05-13T09:06:40.796Z,1.23
2023-05-13T09:09:09.884Z,1.63
2023-05-13T09:11:41.497Z,1.40
2023-05-13T09:14:12.221Z,1.37
2023-05-13T09:16:44.010Z,1.87
2023-05-13T09:19:13.955Z,1.60
2023-05-13T09:21:42.397Z,1.20
2023-05-13T09:24:13.332Z,1.93
2023-05-13T09:26:43.312Z,1.33
2023-05-13T09:29:23.573Z,0.90
2023-05-13T09:31:54.904Z,3.27
2023-05-13T09:34:30.203Z,1.20
2023-05-13T09:37:04.024Z,1.10
2023-05-13T09:39:34.373Z,1.20
2023-05-13T09:42:05.362Z,1.53
2023-05-13T09:44:37.884Z,1.40
2023-05-13T09:47:06.590Z,1.60
2023-05-13T09:49:36.540Z,1.93
2023-05-13T09:52:10.108Z,1.20
2023-05-13T09:54:38.724Z,1.17
2023-05-13T09:57:07.932Z,2.00
2023-05-13T09:59:36.806Z,1.03
2023-05-13T10:02:10.276Z,0.70
2023-05-13T10:04:40.673Z,1.33
2023-05-13T10:07:10.260Z,0.70
2023-05-13T10:09:40.190Z,1.23
2023-05-13T10:12:19.084Z,1.80
2023-05-13T10:14:49.747Z,1.63
2023-05-13T10:17:19.947Z,0.80
2023-05-13T10:19:51.338Z,1.53
2023-05-13T10:22:31.178Z,0.90
2023-05-13T10:25:04.035Z,0.90
2023-05-13T10:27:34.419Z,1.00
2023-05-13T10:30:05.886Z,0.93
2023-05-13T10:32:41.134Z,1.50
2023-05-13T10:35:15.138Z,1.10
2023-05-13T10:38:02.884Z,1.43
2023-05-13T10:40:57.811Z,1.43
2023-05-13T10:43:32.691Z,1.00
2023-05-13T10:46:03.338Z,0.80
2023-05-13T10:48:41.735Z,3.37
2023-05-13T10:51:16.528Z,0.90
2023-05-13T10:53:48.750Z,0.93
2023-05-13T10:56:17.804Z,0.93
2023-05-13T10:59:00.048Z,0.70
2023-05-13T11:01:31.025Z,0.90
2023-05-13T11:04:02.405Z,1.83
2023-05-13T11:06:37.130Z,1.10
2023-05-13T11:09:07.917Z,0.87
2023-05-13T11:11:39.888Z,1.53
2023-05-13T11:14:16.442Z,1.37
2023-05-13T11:16:50.360Z,1.20
2023-05-13T11:19:24.235Z,1.20
2023-05-13T11:21:56.699Z,2.30
2023-05-13T11:24:28.190Z,0.83
2023-05-13T11:26:59.308Z,0.93
2023-05-13T11:29:32.789Z,0.70
2023-05-13T11:32:03.480Z,2.13
2023-05-13T11:34:32.820Z,1.10
2023-05-13T11:37:11.842Z,0.97
2023-05-13T11:39:42.276Z,0.80
2023-05-13T11:42:12.192Z,1.10
2023-05-13T11:44:48.682Z,0.90
2023-05-13T11:47:27.193Z,1.20
2023-05-13T11:49:55.925Z,0.83
2023-05-13T11:52:25.926Z,2.10
2023-05-13T11:54:56.310Z,0.70
2023-05-13T11:57:26.421Z,0.67
2023-05-13T12:00:00.718Z,0.70
2023-05-13T12:02:31.123Z,0.87
2023-05-13T12:05:04.482Z,1.17
2023-05-13T12:07:35.538Z,0.60
2023-05-13T12:10:06.516Z,0.80
2023-05-13T12:12:39.388Z,0.90
2023-05-13T12:15:11.649Z,0.77
2023-05-13T12:17:40.625Z,0.90
2023-05-13T12:20:14.262Z,1.90
2023-05-13T12:22:57.667Z,0.60
2023-05-13T12:25:41.519Z,2.87
2023-05-13T12:28:13.273Z,1.13
2023-05-13T12:31:01.097Z,0.70
2023-05-13T12:33:32.380Z,0.77
2023-05-13T12:36:21.215Z,0.80
2023-05-13T12:39:00.639Z,1.00
2023-05-13T12:41:31.273Z,0.80
2023-05-13T12:44:01.310Z,0.80
2023-05-13T12:46:30.233Z,3.33
2023-05-13T12:49:00.191Z,0.60
2023-05-13T12:51:30.490Z,1.67
2023-05-13T12:54:00.974Z,0.70
2023-05-13T12:56:29.554Z,0.70
2023-05-13T12:58:58.116Z,0.80
2023-05-13T13:01:26.514Z,1.10
2023-05-13T13:03:55.013Z,1.30
2023-05-13T13:06:23.618Z,1.20
2023-05-13T13:08:52.264Z,2.07
2023-05-13T13:11:22.093Z,0.80
2023-05-13T13:13:51.274Z,0.80
2023-05-13T13:16:19.826Z,0.60
2023-05-13T13:18:51.008Z,1.23
2023-05-13T13:21:20.893Z,1.07
2023-05-13T13:23:49.295Z,0.97
2023-05-13T13:26:17.669Z,0.80
2023-05-13T13:28:47.528Z,0.77
2023-05-13T13:31:15.949Z,1.90
2023-05-13T13:33:44.309Z,0.90
2023-05-13T13:36:12.884Z,0.70
2023-05-13T13:38:41.212Z,0.80
2023-05-13T13:41:09.653Z,2.30
2023-05-13T13:43:38.799Z,0.90
2023-05-13T13:46:08.772Z,0.90
2023-05-13T13:48:37.193Z,1.17
2023-05-13T13:51:06.162Z,0.97
2023-05-13T13:53:34.558Z,0.70
2023-05-13T13:56:06.055Z,0.80
2023-05-13T13:58:34.540Z,0.80
2023-05-13T14:01:02.930Z,1.03
2023-05-13T14:03:32.989Z,0.90
2023-05-13T14:06:01.643Z,1.37
2023-05-13T14:08:29.954Z,2.10
2023-05-13T14:10:58.855Z,0.93
2023-05-13T14:13:27.701Z,4.13
2023-05-13T14:15:56.172Z,0.70
2023-05-13T14:18:24.555Z,1.03
2023-05-13T14:20:54.396Z,0.67
2023-05-13T14:23:22.720Z,2.27
2023-05-13T14:25:53.940Z,0.70
2023-05-13T14:28:23.777Z,1.70
2023-05-13T14:30:53.458Z,1.90
2023-05-13T14:33:21.835Z,1.23
2023-05-13T14:35:50.199Z,1.23
2023-05-13T14:38:20.718Z,1.03
2023-05-13T14:40:51.720Z,1.03
2023-05-13T14:43:20.127Z,1.10
2023-05-13T14:46:02.614Z,1.20
2023-05-13T14:48:31.013Z,0.97
2023-05-13T14:50:59.369Z,1.50
2023-05-13T14:53:29.555Z,2.00
2023-05-13T14:55:59.684Z,2.00
2023-05-13T14:58:28.131Z,2.63
2023-05-13T15:01:02.168Z,1.30
2023-05-13T15:03:30.682Z,1.20
2023-05-13T15:05:59.188Z,2.70
2023-05-13T15:08:29.095Z,1.07
2023-05-13T15:10:57.502Z,0.93
2023-05-13T15:13:27.281Z,0.97
2023-05-13T15:15:56.603Z,0.93
2023-05-13T15:18:24.939Z,2.00
2023-05-13T15:20:53.317Z,1.27
2023-05-13T15:23:21.743Z,1.00
2023-05-13T15:25:57.481Z,1.20
2023-05-13T15:28:25.828Z,1.33
2023-05-13T15:30:54.274Z,2.00
2023-05-13T15:33:22.704Z,2.03
2023-05-13T15:35:53.719Z,3.67
2023-05-13T15:38:22.041Z,2.50
2023-05-13T15:40:50.566Z,1.37
2023-05-13T15:43:20.231Z,2.20
2023-05-13T15:45:49.793Z,1.50
2023-05-13T15:48:18.408Z,1.37
2023-05-13T15:50:46.814Z,2.57
2023-05-13T15:53:15.160Z,1.47
2023-05-13T15:55:43.581Z,1.80
2023-05-13T15:58:12.018Z,1.60
2023-05-13T16:00:41.717Z,2.33
2023-05-13T16:03:10.198Z,1.63
2023-05-13T16:05:38.818Z,2.00
2023-05-13T16:08:07.218Z,2.00
2023-05-13T16:10:35.902Z,1.70
2023-05-13T16:13:04.351Z,2.67
2023-05-13T16:15:32.806Z,1.60
2023-05-13T16:18:02.549Z,2.73
2023-05-13T16:20:30.957Z,1.90
2023-05-13T16:22:59.312Z,2.17
2023-05-13T16:25:27.838Z,1.80
2023-05-13T16:27:56.712Z,2.70
2023-05-13T16:30:25.245Z,1.87
2023-05-13T16:32:54.522Z,1.93
2023-05-13T16:35:24.647Z,1.60
2023-05-13T16:37:53.031Z,1.20
2023-05-13T16:40:21.587Z,1.20
2023-05-13T16:42:58.844Z,1.27
2023-05-13T16:45:28.262Z,1.53
2023-05-13T16:47:56.995Z,2.70
2023-05-13T16:50:27.996Z,7.90
2023-05-13T16:52:57.044Z,8.13
2023-05-13T16:55:26.149Z,5.70
2023-05-13T16:57:54.630Z,8.87
2023-05-13T17:00:23.664Z,4.87
2023-05-13T17:02:52.404Z,4.43
2023-05-13T17:05:20.874Z,3.73
2023-05-13T17:07:51.175Z,3.63
2023-05-13T17:10:19.613Z,4.17
2023-05-13T17:12:48.057Z,3.40
2023-05-13T17:15:16.634Z,3.53
2023-05-13T17:17:45.182Z,3.83
2023-05-13T17:20:14.489Z,3.57
2023-05-13T17:22:45.402Z,3.70
2023-05-13T17:25:15.400Z,4.47
2023-05-13T17:27:43.803Z,4.13
2023-05-13T17:30:13.620Z,3.30
2023-05-13T17:32:42.108Z,4.87
2023-05-13T17:35:11.473Z,3.40
2023-05-13T17:37:39.998Z,3.40
2023-05-13T17:40:10.434Z,4.20
2023-05-13T17:42:40.293Z,4.57
2023-05-13T17:45:10.470Z,4.13
2023-05-13T17:47:39.094Z,3.57
2023-05-13T17:50:08.995Z,6.17
2023-05-13T17:52:37.432Z,5.83
2023-05-13T17:55:07.286Z,3.90
2023-05-13T17:57:35.716Z,4.20
2023-05-13T18:00:07.151Z,4.50
2023-05-13T18:02:36.226Z,4.17
2023-05-13T18:05:04.774Z,4.43
2023-05-13T18:07:33.210Z,4.37
2023-05-13T18:10:01.655Z,4.30
2023-05-13T18:12:30.617Z,4.33
2023-05-13T18:14:59.150Z,5.20
2023-05-13T18:17:29.039Z,4.77
2023-05-13T18:19:57.573Z,4.67
2023-05-13T18:22:26.200Z,6.57
2023-05-13T18:24:54.537Z,5.17
2023-05-13T18:27:22.954Z,5.60
2023-05-13T18:29:51.395Z,6.43
2023-05-13T18:32:19.890Z,6.33
2023-05-13T18:34:49.670Z,7.27
2023-05-13T18:37:18.519Z,7.33
2023-05-13T18:39:46.941Z,6.47
2023-05-13T18:42:15.420Z,6.60
2023-05-13T18:44:43.826Z,7.13
2023-05-13T18:47:12.366Z,7.07
2023-05-13T18:49:40.992Z,6.33
2023-05-13T18:52:10.864Z,6.17
2023-05-13T18:54:39.681Z,6.73
2023-05-13T18:57:08.208Z,7.03
2023-05-13T18:59:36.722Z,6.47
2023-05-13T19:02:05.515Z,6.67
2023-05-13T19:04:34.294Z,13.13
2023-05-13T19:07:02.979Z,6.83
2023-05-13T19:09:34.126Z,6.07
2023-05-13T19:12:02.593Z,6.80
2023-05-13T19:14:31.053Z,6.47
2023-05-13T19:16:59.615Z,6.37
2023-05-13T19:19:28.099Z,6.63
2023-05-13T19:21:56.614Z,7.03
2023-05-13T19:24:25.180Z,7.00
2023-05-13T19:26:55.131Z,7.47
2023-05-13T19:29:23.601Z,7.47
2023-05-13T19:31:51.959Z,7.43
2023-05-13T19:34:20.454Z,10.30
2023-05-13T19:36:49.028Z,7.07
2023-05-13T19:39:17.472Z,6.70
2023-05-13T19:41:47.285Z,7.93
2023-05-13T19:44:17.011Z,7.23
2023-05-13T19:46:45.643Z,7.10
2023-05-13T19:49:14.072Z,6.53
2023-05-13T19:51:42.461Z,6.43
2023-05-13T19:54:11.886Z,5.80
2023-05-13T19:56:42.634Z,5.60
2023-05-13T19:59:11.273Z,6.87
2023-05-13T20:01:41.236Z,6.73
2023-05-13T20:04:10.668Z,6.03
2023-05-13T20:06:39.124Z,6.30
2023-05-13T20:09:07.491Z,6.03
2023-05-13T20:11:35.871Z,5.70
2023-05-13T20:14:04.386Z,6.40
2023-05-13T20:16:32.913Z,6.57
2023-05-13T20:19:02.813Z,6.30
2023-05-13T20:21:31.329Z,5.90
2023-05-13T20:23:59.795Z,7.10
2023-05-13T20:26:28.438Z,5.97
2023-05-13T20:28:58.663Z,6.17
2023-05-13T20:31:29.673Z,9.93
2023-05-13T20:33:58.683Z,6.07
2023-05-13T20:36:28.539Z,6.67
2023-05-13T20:38:57.083Z,6.13
2023-05-13T20:41:25.654Z,6.33
2023-05-13T20:43:53.999Z,6.20
2023-05-13T20:46:23.428Z,6.07
2023-05-13T20:48:51.930Z,6.20
2023-05-13T20:51:20.518Z,6.13
2023-05-13T20:53:50.624Z,5.73
2023-05-13T20:56:19.177Z,5.87
2023-05-13T20:58:47.640Z,5.70
2023-05-13T21:01:16.181Z,6.00
2023-05-13T21:03:44.671Z,6.67
2023-05-13T21:06:13.204Z,6.30
2023-05-13T21:08:41.672Z,14.40
2023-05-13T21:11:11.831Z,20.90
2023-05-13T21:13:40.453Z,15.83
2023-05-13T21:16:09.047Z,10.33
2023-05-13T21:18:37.782Z,8.87
2023-05-13T21:21:12.282Z,8.07
2023-05-13T21:23:43.088Z,7.43
2023-05-13T21:26:13.310Z,7.97
2023-05-13T21:28:42.276Z,6.60
2023-05-13T21:31:10.708Z,7.23
2023-05-13T21:33:39.197Z,7.20
2023-05-13T21:36:08.659Z,6.23
2023-05-13T21:38:37.180Z,6.73
2023-05-13T21:41:05.681Z,7.80
2023-05-13T21:43:35.522Z,7.40
2023-05-13T21:46:06.551Z,6.63
2023-05-13T21:48:35.097Z,7.33
2023-05-13T21:51:03.630Z,5.63
2023-05-13T21:53:32.019Z,5.37
2023-05-13T21:56:00.548Z,5.93
2023-05-13T21:58:29.323Z,5.83
2023-05-13T22:01:00.287Z,5.93
2023-05-13T22:03:29.091Z,5.00
2023-05-13T22:06:00.615Z,6.10
2023-05-13T22:08:29.181Z,5.63
2023-05-13T22:10:57.738Z,5.23
2023-05-13T22:13:27.121Z,4.80
2023-05-13T22:15:55.597Z,6.13
2023-05-13T22:18:25.831Z,4.80
2023-05-13T22:20:54.476Z,6.90
2023-05-13T22:23:22.947Z,5.40
2023-05-13T22:25:51.412Z,5.67
2023-05-13T22:28:19.915Z,5.80
2023-05-13T22:30:59.362Z,5.33
2023-05-13T22:33:29.218Z,6.13
2023-05-13T22:35:57.630Z,8.27
2023-05-13T22:38:26.362Z,4.93
2023-05-13T22:40:54.859Z,6.67
2023-05-13T22:43:23.441Z,5.03
2023-05-13T22:45:52.128Z,4.57
2023-05-13T22:48:20.638Z,5.87
2023-05-13T22:50:50.694Z,5.90
2023-05-13T22:53:19.149Z,4.90
2023-05-13T22:55:47.626Z,5.63
2023-05-13T22:58:16.354Z,4.80
2023-05-13T23:00:45.030Z,4.90
2023-05-13T23:03:13.511Z,4.57
2023-05-13T23:05:42.108Z,4.77
2023-05-13T23:08:11.936Z,4.40
2023-05-13T23:10:44.035Z,5.07
2023-05-13T23:13:12.526Z,6.07
2023-05-13T23:15:41.160Z,5.40
2023-05-13T23:18:09.580Z,5.27
2023-05-13T23:20:40.663Z,4.80
2023-05-13T23:23:11.894Z,5.70
2023-05-13T23:25:41.539Z,5.07
2023-05-13T23:28:09.901Z,5.00
2023-05-13T23:30:41.247Z,5.63
2023-05-13T23:33:10.132Z,5.70
2023-05-13T23:35:38.454Z,4.90
2023-05-13T23:38:06.798Z,5.70
2023-05-13T23:40:35.178Z,5.60
2023-05-13T23:43:04.971Z,9.47
2023-05-13T23:45:33.338Z,5.27
2023-05-13T23:48:01.924Z,5.37
2023-05-13T23:50:30.268Z,6.73
2023-05-13T23:52:58.820Z,7.87
2023-05-13T23:55:27.118Z,4.73
2023-05-13T23:57:56.053Z,5.50
